Angel Albino Corzo International Airport
MMTG : rendu visible

Aérodrome :











RETROUVEZ-NOUS SUR...

 
LOGIN :

S'inscrire | Disclaimer

   EN    FR    IT 

 









Légende :    VFR   VFR Marginal   IFR   IFR Intensif   IFR Très Intensif
Visi : 
Plafond : 
>= 8 km
>= 3000ft
5 à 8 km
1000 à 3000 ft
1500m à 5 km
500 à 1000 ft
800 à 1500m
200 à 500 ft
< 800m
< 200 ft
Symboles :   Orages  Brouillard  Fortes neiges  Fortes précipitations  Vent > 20 kt






- Altitude de l'aérodrome : 1499 ft


MMTG - Angel Albino Corzo International

DERNIER METAR :
  • 110348Z 28004KT 10SM SKC 22/15 A3001

METARs EXPIRÉS :
  • 110242Z 26004KT 10SM SKC 22/15 A2999 RMK SLP130 52029 914
  • 110141Z 27005KT 10SM SKC 25/16 A2996 RMK ISOLD CI

TAF TAF MMTG
Valide du 10 à 18h jusqu'au 11 à 18h UTC


101721Z 1018/1118 12005KT P6SM SCT020 SCT300
BECMG 1020/1021 32010KT
FM110200 32005KT P6SM SCT080
BECMG 1105/1106 00000KT
FM111000 00000KT 5SM HZ SCT015
TEMPO 1111/1115 3SM BR HZ BKN015
FM111600 32006KT 6SM HZ SCT015 SCT080



MET'MAP, la Météo Aéronautique d'un coup d'oeil ! - Copyright ORBIFLY Décembre 2007 - Disclaimer

ORBIFLY MET'MAP TEAM :

Programmation & Développement : Alexandra Zaïnal
Sur une idée originale de : Baudouin d'Aumeries
Assistance à la programmation : Marc-Olivier Méhu
Soutien technique & logistique : Manuel Goepfert

Contact : metmap@orbifly.com




SOURCES & CREDITS :

   NOAA       Earth
Advisory